JoeTourist Weather Station
NOAA-Style Summaries

Real-time weather reporting for the City of Victoria

 

Up • Daily/Monthly/Yearly Summaries • NOAA-Style Summaries • Previous 5 days • Daily Tabular Data

Home
Quick Glance
Current Conditions
Changing Conditions
Today's Weather
Web Cam
Radar
Satellites
Reporting Stations
Summaries

 

Last Updated: 9/27/14 3:00pm Pacific Time

This Month

                  MONTHLY CLIMATOLOGICAL SUMMARY FOR 9/2014
                                        HEAT  COOL        
     MEAN                               DEG   DEG       WIND SPEED       DOM MEAN  MEAN
DAY  TEMP  HIGH   TIME     LOW   TIME   DAYS  DAYS RAIN AVG  HI  TIME    DIR BAROM HUM
---------------------------------------------------------------------------------------
1    16.9  20.3   2:06pm  13.5   6:29am    3    0   0.0   2  17   5:10pm  SW  1010   80
2    15.0  18.4  12:00pm  12.8   9:42pm    5    0  25.2   2  15  11:13am   W  1005   91
3    14.9  19.5   5:01pm  12.9  12:00am    5    0   0.0   1  12   3:00pm  SE  1010   85
4    16.2  21.2   4:38pm  11.1   5:01am    4    0   0.0   2  13  10:33am NNE  1014   78
5    18.0  24.5   6:55pm  11.2   4:52am    3    1   0.0   2  21   9:16am NNE  1013   70
6    20.2  27.5   4:55pm  14.3   3:13am    2    2   0.0   2  12  12:42pm  NE  1008   61
7    18.2  25.0   4:29pm  12.8   7:10am    3    1   0.0   1  13   4:50pm  SW  1004   68
8    16.9  22.3   3:19pm  12.7   6:03am    3    0   0.0   3  18   3:26pm SSW  1004   77
9    16.1  19.6   4:05pm  12.6   6:23am    4    0   0.0   2  13  10:29pm  SE  1011   82
10   16.9  21.9   6:55pm  12.6   3:48am    3    0   0.0   2  15  11:24am NNE  1016   57
11   14.6  16.8  12:00am  14.1   4:06am    5    0   0.0   3  14   1:50am NNE  1018   46
12   14.1  14.1  12:00am  14.1  12:00am    6    0   0.0   2  14   9:57am NNE  1011   47
13   14.1  14.1  12:00am  14.1  12:00am    6    0   0.0   1  16  12:55pm NNE  1007   47
14   14.1  14.1  12:00am  14.1  12:00am    6    0   0.0   1  11   9:24am NNE  1005   47
15   14.1  14.1  12:00am  14.1  12:00am    6    0   0.0   1  10  10:06am NNE  1004   47
16   14.1  14.1  12:00am  14.1  12:00am    6    0   0.0   2  14   5:40pm  SW  1004   47
17   14.1  14.1  12:00am  14.1  12:00am    6    0   1.1   0  10   2:51am SSW  1002   47
18   14.1  14.1  12:00am  14.1  12:00am    6    0   0.3   1  14   9:22am  SW  1002   47
19   14.1  14.1  12:00am  14.1  12:00am    6    0   0.3   0  10   1:46pm  SE  1011   47
20   14.1  14.1  12:00am  14.1  12:00am    6    0   0.0   2  14   1:25pm  NE  1011   47
21   14.1  14.1  12:00am  14.1  12:00am    6    0   0.0   2  15   4:22pm  SW  1004   47
22   14.1  14.1  12:00am  14.1  12:00am    6    0   0.0   1  13   1:23pm  SE  1007   47
23   14.1  14.1  12:00am  14.1  12:00am    6    0   5.3   0  18  10:13pm  SE  1002   47
24   14.1  14.1  12:00am  14.1  12:00am    6    0   4.2   1  12   1:20am ENE  1001   47
25   14.1  14.1  12:00am  14.1  12:00am    6    0   0.0   1  12   1:36pm  SE  1003   47
26   14.1  14.1  12:00am  14.1  12:00am    6    0   9.8   0  12  12:27pm  SW  1007   47
27   14.1  14.1  12:00am  14.1  12:00am    4    0   0.0   0  10  11:21am NNE  1014   47
---------------------------------------------------------------------------------------
TOT  15.2  27.5   9/6/14  11.1   9/4/14  132    4  46.2   1  21   9/5/14 NNE  1008   57

HEAT BASE: 20.0
COOL BASE: 20.0

horizontal rule

This Year

                  YEARLY CLIMATOLOGICAL SUMMARY FOR 2014
                                        HEAT  COOL        
     MEAN                               DEG   DEG       WIND SPEED       DOM MEAN  MEAN
MON  TEMP  HIGH   DATE     LOW   DATE   DAYS  DAYS RAIN AVG  HI  DATE    DIR BAROM HUM
---------------------------------------------------------------------------------------
1     5.7  11.1  1/14/14  -1.0   1/4/14  442    0  88.2   4  52  1/11/14 NNE  1015   77
2     3.5  11.1  2/14/14  -5.0   2/6/14  405    0 115.6   6  48  2/15/14 NNE  1007   53
3     7.5  14.1   3/9/14   0.5  3/22/14  388    0 108.6   5  41  3/14/14 NNE  1008   57
4    10.5  23.5  4/30/14   4.0   4/2/14  285    1  52.1   5  34  4/18/14  SW  1010   41
5    14.7  25.6  5/14/14   6.5  5/10/14  169    5  22.7   3  25   5/2/14  SW  1010   37
6    16.0  23.9   6/8/14   9.3  6/21/14  124    5   3.6   3  30  6/15/14  SW  1010   35
7    18.7  28.9   7/1/14  12.3   7/4/14   73   33   4.8   3  29  7/24/14  SW  1010   33
8    18.6  28.7  8/10/14  12.4  8/21/14   71   29  17.4   2  24  8/19/14  SW  1009   52
9    15.2  27.5   9/6/14  11.1   9/4/14  132    4  46.2   1  21   9/5/14 NNE  1008   57
---------------------------------------------------------------------------------------
TOT  12.4  28.9   7/1/14  -5.0   1/1/14 2089   76 459.2   4  52  1/11/14  SW  1010   49

HEAT BASE: 20.0
COOL BASE: 20.0

horizontal rule

Previous Years

                  YEARLY CLIMATOLOGICAL SUMMARY FOR 2013
                                        HEAT  COOL        
     MEAN                               DEG   DEG       WIND SPEED       DOM MEAN  MEAN
MON  TEMP  HIGH   DATE     LOW   DATE   DAYS  DAYS RAIN AVG  HI  DATE    DIR BAROM HUM
---------------------------------------------------------------------------------------
1     4.2  10.1  1/30/13  -2.5  1/12/13  485    0  71.1   3  37   1/7/13 NNE  1016   78
2     6.1   9.9  2/12/13   0.1   2/8/13  388    0  45.9   4  50  2/25/13  SW  1014   71
3     7.4  19.1  3/31/13   0.1  3/22/13  391    0  82.9   4  54  3/20/13 NNE  1013   60
4     9.5  19.2  4/25/13   2.3  4/14/13  312    0  67.2   5  43  4/10/13  SW  1013   53
5    13.5  26.8   5/5/13   3.0   5/1/13  207    4  42.3   2  31  5/13/13  SW  1011   51
6    16.3  29.4  6/30/13   9.9  6/10/13  119    8   8.4   3  27   6/7/13  SW  1010   46
7    18.6  29.2   7/1/13  11.9  7/27/13   74   31   0.0   3  26  7/10/13  SW  1010   37
8    17.6  27.6   8/8/13  11.0  8/26/13   92   17  28.8   2  24  8/19/13  SW  1008   52
9    15.1  29.4  9/11/13   7.9  9/26/13  152    7 170.0   1  40  9/29/13  SW  1005   67
10   10.0  16.8  10/6/13   4.0 10/30/13  310    0  16.2   1  28 10/28/13 NNE  1014   72
11    6.8  12.7 11/12/13  -2.3 11/21/13  395    0  61.6   3  29  11/2/13 NNE  1012   70
12    3.6  10.4  12/1/13  -6.6  12/8/13  505    0  40.3   3  44 12/23/13  NE  1018   67
---------------------------------------------------------------------------------------
TOT  10.8  29.4  6/30/13  -6.6   1/1/13 3430   67 634.8   3  54  3/20/13  SW  1012   60

HEAT BASE: 20.0
COOL BASE: 20.0

                  YEARLY CLIMATOLOGICAL SUMMARY FOR 2012
                                        HEAT  COOL        
     MEAN                               DEG   DEG       WIND SPEED       DOM MEAN  MEAN
MON  TEMP  HIGH   DATE     LOW   DATE   DAYS  DAYS RAIN AVG  HI  DATE    DIR BAROM HUM
---------------------------------------------------------------------------------------
1     4.1  10.2  1/24/12  -5.6  1/18/12  494    0 108.6   5  50  1/26/12 NNE  1013   80
2     5.8  11.6   2/7/12  -1.7  2/27/12  410    0  67.5   5  49  2/28/12 NNE  1011   73
3     6.1  15.1  3/25/12  -1.5   3/7/12  432    0  74.8   5  47  3/12/12  SW   895   65
4    10.0  20.4  4/22/12   0.9   4/6/12  300    0  42.3   4  41  4/16/12  SW  1008   59
5    12.4  24.5  5/14/12   4.1   5/2/12  240    3  15.4   4  40   5/9/12  SW  1012   49
6    13.9  21.1  6/29/12   7.8  6/15/12  184    0  38.4   4  28  6/14/12   W  1009   56
7    16.9  25.3  7/12/12  10.2   7/5/12  107   12  17.9   3  26  7/23/12  SW  1010   54
8    18.3  30.6  8/16/12  10.9  8/31/12   82   28   4.2   2  29  8/23/12  SW  1010   51
9    15.4  26.9   9/7/12   8.2  9/12/12  145    7   1.4   2  28  9/10/12  SW  1013   55
10   10.6  21.9  10/1/12   4.4 10/21/12  291    0 133.6   2  32  10/1/12 NNE  1009   74
11    7.6  14.5  11/4/12   0.6 11/10/12  370    0 108.9   3  40 11/18/12 NNE  1007   82
12    5.3  10.4  12/4/12   0.7 12/18/12  456    0 114.5   4  49  12/4/12  SW   998   80
---------------------------------------------------------------------------------------
TOT  10.5  30.6  8/16/12  -5.6   1/1/12 3511   51 727.4   3  50  1/26/12  SW  1000   65

HEAT BASE: 20.0
COOL BASE: 20.0

                  YEARLY CLIMATOLOGICAL SUMMARY FOR 2011
                                        HEAT  COOL        
     MEAN                               DEG   DEG       WIND SPEED       DOM MEAN  MEAN
MON  TEMP  HIGH   DATE     LOW   DATE   DAYS  DAYS RAIN AVG  HI  DATE    DIR BAROM HUM
---------------------------------------------------------------------------------------
1     5.2  12.1  1/14/11  -2.3   1/1/11  459    0 140.0   4  46  1/17/11 NNE  1016   80
2     3.7  10.7   2/4/11  -6.5  2/25/11  457    0  74.2   5  50   2/6/11 NNE   616   67
3     7.2  13.3  3/24/11   0.3   3/7/11  396    0  72.0   5  50   3/2/11  SW   995   69
4     7.7  16.6  4/23/11   0.6   4/7/11  370    0  73.1   5  36  4/10/11  SW  1013   61
5    11.5  21.3  5/20/11   4.3   5/4/11  263    0  60.5   4  30   5/3/11  SW  1012   58
6    14.8  24.1   6/6/11   8.6  6/16/11  156    2   6.2   4  30  6/13/11  SW  1011   55
7    16.4  25.6  7/24/11  10.4   7/9/11  119    7  16.2   3  35   7/7/11  SW  1012   58
8    17.4  26.3  8/20/11  10.7  8/16/11   93   14   8.7   3  24  8/13/11  SW  1012   56
9    15.8  27.2   9/7/11   8.5  9/28/11  136    9   2.5   2  32  9/26/11  SW  1012   64
10   10.2  16.4  10/3/11   2.7 10/27/11  291    0  38.4   1  30  10/4/11  SW  1012   80
11    5.7  12.2 11/10/11  -2.3 11/20/11  428    0 123.2   3  40 11/16/11 WSW  1011   79
12    4.7  11.5 12/28/11  -1.4 12/12/11  474    0  55.7   2  43 12/25/11 NNE  1021   87
---------------------------------------------------------------------------------------
TOT  10.0  27.2   9/7/11  -6.5   1/1/11 3641   33 496.7   3  50   2/6/11  SW   981   68

HEAT BASE: 20.0
COOL BASE: 20.0

                  YEARLY CLIMATOLOGICAL SUMMARY FOR 2010
                                        HEAT  COOL        
     MEAN                               DEG   DEG       WIND SPEED       DOM MEAN  MEAN
MON  TEMP  HIGH   DATE     LOW   DATE   DAYS  DAYS RAIN AVG  HI  DATE    DIR BAROM HUM
---------------------------------------------------------------------------------------
1     7.7  13.2  1/11/10   2.3  1/16/10  377    0  87.6   5  40  1/24/10 NNE  1006   72
2     7.8  12.8  2/14/10   0.7  2/22/10  297    0  13.7   3  40  2/26/10 NNE  1010   68
3     8.0  15.1  3/16/10  -0.1   3/9/10  372    0  61.9   5  39  3/11/10 NNE  1011   61
4     9.8  20.8  4/19/10   2.1   4/9/10  306    0  37.5   6  59   4/2/10  SW  1009   56
5    11.9  21.5  5/14/10   3.0   5/5/10  251    0  54.6   4  41   5/3/10  SW  1012   57
6    14.7  23.8  6/23/10   9.4   6/3/10  160    2  13.2   4  37   6/2/10  SW  1013   52
7     0.0  14.6   8/1/10  14.6   8/1/10    0    0   0.0   0   0   8/1/10 ---     0    0
8    17.6  32.6  8/14/10  10.1  8/29/10   98   25  22.4   3  30  8/22/10  SW  1008   51
9    14.6  23.0   9/3/10   8.6  9/22/10  157    0  69.4   2  26   9/4/10  SW  1010   75
10   11.1  20.8  10/1/10   3.5 10/17/10  277    0  47.6   2  37 10/24/10 NNE   775   74
11    6.0  15.5  11/3/10  -6.9 11/23/10  419    0  65.8   4  55 11/22/10 NNE   931   77
12    5.8  11.6  12/7/10  -3.1 12/31/10  438    0 158.2   5  44 12/14/10 NNE  1006   72
---------------------------------------------------------------------------------------
TOT  10.7  32.6  8/14/10  -6.9   8/8/10 1367   22 631.9   3  55 11/22/10  SW   942   70

HEAT BASE: 20.0
COOL BASE: 20.0

                  YEARLY CLIMATOLOGICAL SUMMARY FOR 2009
                                        HEAT  COOL        
     MEAN                               DEG   DEG       WIND SPEED       DOM MEAN  MEAN
MON  TEMP  HIGH   DATE     LOW   DATE   DAYS  DAYS RAIN AVG  HI  DATE    DIR BAROM HUM
---------------------------------------------------------------------------------------
1     4.1  10.8  1/18/09  -2.9  1/26/09  464    0 113.7   5  47   1/8/09 NNE  1020   67
2     0.0   1.5   3/9/09   1.5   3/9/09    0    0   0.0   0   5   3/9/09 ---     0    0
3     5.0  12.4  3/20/09  -3.8  3/10/09  344    0  44.0   5  63  3/15/09  SW  1014   53
4     9.7  22.5  4/21/09   0.3   4/4/09  307    0  46.8   4  33  4/12/09  SW  1015   46
5    12.9  24.3  5/29/09   5.1  5/14/09  222    3  43.1   4  35   5/4/09  SW  1013   45
6    17.1  31.3   6/3/09   9.9  6/29/09  107   19   4.5   4  29  6/25/09  SW  1010   39
7    19.2  34.9  7/29/09  10.7   7/1/09   72   49   9.2   3  26  7/18/09  SW  1012   41
8    17.1  28.7   8/1/09  10.9  8/24/09   89   11  15.1   3  21  8/12/09  SW  1013   48
9    15.3  26.0  9/12/09   7.3  9/30/09  140    5  36.1   2  24  9/19/09  SW  1012   53
10   10.7  18.9  10/4/09   3.1 10/12/09  275    0 102.2   2  34 10/23/09 NNE  1008   58
11    7.6  11.9  11/5/09   0.8 11/14/09  351    0 216.4   4  44 11/17/09  SE  1004   71
12    3.3   9.9 12/18/09  -5.6  12/9/09  507    0  52.1   4  43  12/6/09 NNE  1014   67
---------------------------------------------------------------------------------------
TOT  10.7  34.9  7/29/09  -5.6   1/1/09 3255   87 683.2   4  63  3/15/09  SW  1013   54

HEAT BASE: 20.0
COOL BASE: 20.0

                  YEARLY CLIMATOLOGICAL SUMMARY FOR 2008
                                        HEAT  COOL        
     MEAN                               DEG   DEG       WIND SPEED       DOM MEAN  MEAN
MON  TEMP  HIGH   DATE     LOW   DATE   DAYS  DAYS RAIN AVG  HI  DATE    DIR BAROM HUM
---------------------------------------------------------------------------------------
1     3.7  10.5   1/4/08  -2.8  1/22/08  474    0  61.9   4  39   1/7/08  SW  1008   78
2     5.7  12.1  2/22/08  -0.6   2/4/08  334    0  55.7   4  49   2/5/08 NNE  1012   79
3     5.9  12.6   3/8/08   0.4   3/5/08  414    0  37.2   4  49  3/23/08  SW  1016   72
4     7.8  18.9  4/12/08  -1.1   4/1/08  365    0  24.9   6  38  4/14/08  SW  1015   60
5    12.8  26.0  5/17/08   4.7   5/9/08  225    3  14.6   3  33  5/11/08  SW  1014   62
6    14.2  28.5  6/29/08   7.3  6/10/08  182    9  14.0   4  38   6/9/08  SW  1014   57
7    16.8  27.5  7/12/08  10.6  7/24/08  102   11   4.8   3  23  7/10/08  SW  1013   54
8    17.2  29.2  8/14/08   9.2  8/31/08  106   18  28.3   2  27  8/27/08  SW  1010   59
9    15.0  24.9  9/16/08   6.7  9/23/08  154    4   5.3   2  27  9/22/08  SW  1014   60
10    0.0   9.0 11/10/08   9.0 11/10/08    0    0   0.0   0   0 11/10/08 ---     0    0
11    8.1  13.6 11/15/08   0.9 11/26/08  239    0  37.8   3  38 11/12/08 NNE  1017   68
12    2.4  12.3  12/2/08  -8.7 12/20/08  529    0  75.3   4  54 12/29/08  NE  1011   67
---------------------------------------------------------------------------------------
TOT  10.1  29.2  8/14/08  -8.7   1/1/08 3329   46 359.8   4  54 12/29/08  SW  1013   65

HEAT BASE: 20.0
COOL BASE: 20.0

                  YEARLY CLIMATOLOGICAL SUMMARY FOR 2007
                                        HEAT  COOL
     MEAN                               DEG   DEG       WIND SPEED       DOM MEAN  MEAN
MON  TEMP  HIGH   DATE     LOW   DATE   DAYS  DAYS RAIN AVG  HI  DATE    DIR BAROM HUM
---------------------------------------------------------------------------------------
1     4.6  11.3  1/23/07  -6.0  1/12/07  478    0 204.4   2  27   1/5/07 NNE 30.17   85
2     6.7  13.2  2/17/07  -0.4   2/2/07  372    0  70.0   2  24  2/15/07 NNE 29.89   85
3     8.3  16.4  3/30/07  -2.7   3/1/07  363    0  99.4   2  24  3/12/07 WSW 30.04   78
4    10.1  19.8   4/6/07   1.8   4/2/07  297    0  23.5   3  22   4/9/07  SW 30.00   67
5    13.4  24.4  5/30/07   5.9  5/10/07  208    3   7.3   2  23   5/8/07  SW 30.03   62
6    15.3  24.9   6/3/07   9.3  6/19/07  145    5  19.0   2  17  6/10/07  SW 29.98   63
7    18.7  35.1  7/11/07  12.0  7/31/07   73   33  27.4   2  14  7/13/07  SW 29.97   66
8    17.6  27.1   8/2/07  11.7  8/11/07   89   16  15.7   2  15  8/16/07  SW 29.94   67
9    14.3  25.4  9/10/07   7.3  9/24/07  175    4  12.9   1  13  9/27/07  SW 29.99   77
10   10.3  19.1 10/23/07   3.1 10/30/07  300    0  56.0   1  17 10/15/07 WSW 29.97   83
11    6.9  14.1  11/9/07   0.9 11/25/07  394    0  60.8   2  25 11/12/07 NNE 30.08   86
12    4.8  12.0  12/3/07  -1.9 12/31/07  471    0 147.0   2  23 12/16/07  SW 29.93   84
---------------------------------------------------------------------------------------
TOT  10.9  35.1  7/11/07  -6.0   1/1/07 3367   60 734.8   2  27   1/5/07  SW 30.00   75

HEAT BASE: 20.0
COOL BASE: 20.0

                  YEARLY CLIMATOLOGICAL SUMMARY FOR 2006
                                        HEAT  COOL
     MEAN                               DEG   DEG       WIND SPEED       DOM MEAN  MEAN
MON  TEMP  HIGH   DATE     LOW   DATE   DAYS  DAYS RAIN AVG  HI  DATE    DIR BAROM HUM
---------------------------------------------------------------------------------------
1     7.2  12.2   1/6/06   2.6  1/20/06  396    0 161.0   3  28  1/31/06  SW 29.82   90
2     5.7  12.8  2/27/06  -1.6  2/24/06  400    0  33.9   4  39   2/4/06 NNE 30.12   67
3     7.9  15.5  3/23/06  -0.3  3/10/06  376    0  31.4   3  28   3/8/06 NNE 29.78   68
4    10.6  21.5  4/24/06   3.1  4/17/06  282    0  35.3   3  22  4/15/06  SW 29.94   66
5    13.8  26.5  5/16/06   4.1   5/2/06  195    4  21.8   2  24   5/7/06  SW 30.00   61
6    17.1  29.8  6/25/06  10.6   6/6/06  104   17  17.4   2  16  6/16/06  SW 30.03   63
7    18.8  32.1  7/21/06  12.0  7/16/06   74   38   2.5   2  19  7/17/06  SW 30.00   59
8    17.5  25.3  8/28/06   0.0  8/20/06   96   18   2.5   2  16  8/29/06  SW 30.00   65
9    15.5  27.1   9/2/06   8.5  9/16/06  143    8  21.8   1  15   9/9/06  SW 29.99   73
10   10.9  19.2  10/4/06   0.3 10/31/06  282    0  35.6   1  15 10/29/06  SW 30.07   79
11    6.6  15.5  11/6/06  -6.4 11/28/06  402    0 284.2   3  25 11/15/06  SW 29.79   88
12    0.0  10.9 12/11/06  -0.5  12/1/06  300    0  96.0   2   4 12/31/06  SW 29.88   80
---------------------------------------------------------------------------------------
TOT  11.5  32.1  7/21/06  -6.4 11/28/06 3050   85 743.4   2  39   2/4/06  SW 29.88   72

HEAT BASE: 20.0
COOL BASE: 20.0

                  YEARLY CLIMATOLOGICAL SUMMARY FOR 2005
                                        HEAT  COOL        
     MEAN                               DEG   DEG       WIND SPEED       DOM MEAN  MEAN
MON  TEMP  HIGH   DATE     LOW   DATE   DAYS  DAYS RAIN AVG  HI  DATE    DIR BAROM HUM
---------------------------------------------------------------------------------------
1     5.4  14.7  1/19/05  -3.5  1/11/05  453    0 134.4   2  22  1/12/05 NNE 29.97   84
2     6.1  13.6  2/28/05  -0.4  2/21/05  361    0  33.9   2  22   2/4/05 NNE 30.04   75
3     9.4  17.9  3/13/05   4.0   3/5/05  330    0  50.1   2  21  3/16/05 NNE 29.94   77
4    11.2  21.8  4/22/05   3.3   4/9/05  264    1  19.6   3  22   4/1/05  SW 29.95   71
5    15.0  28.9  5/27/05   8.8  5/24/05  163    9  22.7   1  15  5/21/05  SW 29.90   69
6    16.0  25.4  6/20/05   9.7   6/9/05  124    5  22.1   2  39   6/8/05  SW 29.90   67
7    18.2  26.9  7/18/05  12.0   7/3/05   80   24  11.2   2  14  7/22/05  SW 29.98   65
8    18.3  27.3   8/4/05  12.2  8/24/05   79   25  25.2   1  15  8/16/05  SW 29.98   68
9    14.6  22.4   9/2/05   7.1  9/23/05  163    1  34.7   1  14   9/2/05  SW 30.02   73
10   11.4  17.2  10/1/05   5.7 10/26/05  268    0  85.1   1  21 10/27/05  SW 29.94   88
11    6.8  12.3 11/10/05   0.9 11/29/05  396    0  91.6   2  29 11/24/05 NNE 30.03   89
12    6.0  13.3 12/24/05   0.4  12/1/05  433    0  72.2   2  22 12/29/05 NNE 29.94   87
---------------------------------------------------------------------------------------
TOT  11.6  28.9  5/27/05  -3.5  1/11/05 3114   65 602.8   2  39   6/8/05  SW 29.97   76

HEAT BASE: 20.0
COOL BASE: 20.0

                  YEARLY CLIMATOLOGICAL SUMMARY FOR 2004
                                        HEAT  COOL        
     MEAN                               DEG   DEG       WIND SPEED       DOM MEAN  MEAN
MON  TEMP  HIGH   DATE     LOW   DATE   DAYS  DAYS RAIN AVG  HI  DATE    DIR BAROM HUM
---------------------------------------------------------------------------------------
1     5.4  12.4  1/15/04  -7.2   1/4/04  451    0  76.4   2  27  1/30/04 NNE 29.96   87
2     7.2  13.1  2/24/04   2.2   2/5/04  372    0  14.3   1  22  2/16/04 NNE 29.96   81
3     9.2  22.9  3/29/04   1.9   3/2/04  335    0  52.4   3  35  3/17/04  SW 30.07   74
4    12.2  24.1  4/30/04   2.5   4/1/04  236    2   1.7   2  29  4/13/04 SSW 30.03   64
5    14.5  24.3   5/1/04   7.4   5/6/04  174    2  17.9   2  18  5/30/04 SSW 29.95   67
6    17.4  29.6  6/17/04   8.8  6/15/04  103   25  12.0   1  18  6/14/04 SSW 29.99   60
7    19.4  33.2  7/23/04  12.5   7/9/04   62   43   9.0   2  25   7/5/04 SSW 29.96   64
8    18.7  30.3   8/9/04  13.3   8/1/04   69   28  84.3   2  18  8/22/04 SSW 29.93   74
9    14.4  21.1   9/9/04   7.6  9/20/04  167    0  48.4   1  19   9/1/04 SSW 29.96   82
10   11.4  20.2  10/1/04   3.3 10/24/04  265    0  44.2   2  19 10/30/04 WSW 29.88   85
11    7.9  13.5 11/10/04   1.1 11/28/04  362    0 118.2   1  25 11/18/04 NNE 30.15   91
12    6.8  11.7 12/10/04   1.6  12/5/04  410    0 102.8   2  26  12/8/04 NNE 29.99   89
---------------------------------------------------------------------------------------
TOT  12.1  33.2  7/23/04  -7.2   1/4/04 3005  100 581.6   2  35  3/17/04 SSW 29.99   77

HEAT BASE: 20.0
COOL BASE: 20.0

                  YEARLY CLIMATOLOGICAL SUMMARY FOR 2003
                                        HEAT  COOL        
     MEAN                               DEG   DEG       WIND SPEED       DOM MEAN  MEAN
MON  TEMP  HIGH   DATE     LOW   DATE   DAYS  DAYS RAIN AVG  HI  DATE    DIR BAROM HUM
---------------------------------------------------------------------------------------
1     7.7  12.6  1/26/03   2.6  1/10/03  370    0 124.3   3  28   1/3/03 NNE 30.06   89
2     6.2  13.8  2/15/03  -0.7  2/25/03  362    0  29.7   2  20  2/20/03 NNE 30.06   81
3     8.3  15.6  3/30/03   0.7   3/8/03  362    0  76.2   3  25  3/19/03  SW 29.87   82
4    10.3  19.4  4/29/03   1.9   4/4/03  289    0  37.5   3  20   4/1/03 NNE 29.84   73
5    13.2  21.6  5/29/03   4.8   5/6/03  211    1  11.5   2  18  5/12/03 SSW 30.01   68
6    17.2  30.5   6/6/03   9.4   6/3/03  106   21   3.4   2  20  6/20/03 SSW 29.97   62
7    19.0  28.8  7/29/03   2.4  7/15/03   69   36   4.8   2  17  7/31/03 SSW 30.02   64
8    18.0  26.8  8/18/03  10.0  8/24/03   83   22   0.3   2  17   8/1/03 SSW 30.01   67
9    16.0  27.3   9/2/03   9.0  9/21/03  128    9  18.2   1  13  9/19/03 SSW 30.00   74
10   11.8  20.5  10/1/03   1.4 10/31/03  253    0 241.1   2  28 10/28/03 NNE 29.99   86
11    6.1  12.9 11/11/03  -0.2  11/1/03  418    0 152.3   3  27 11/18/03 NNE 29.97   78
12    5.9  11.2  12/2/03  -2.0 12/30/03  437    0  51.2   3  26  12/4/03 NNE 29.87   86
---------------------------------------------------------------------------------------
TOT  11.7  30.5   6/6/03  -2.0 12/30/03 3107   89 467.9   2  28   1/3/03 NNE 29.97   76

HEAT BASE: 20.0
COOL BASE: 20.0

                  YEARLY CLIMATOLOGICAL SUMMARY FOR 2002
                                        HEAT  COOL        
     MEAN                               DEG   DEG       WIND SPEED       DOM MEAN  MEAN
MON  TEMP  HIGH   DATE     LOW   DATE   DAYS  DAYS RAIN AVG  HI  DATE    DIR BAROM HUM
---------------------------------------------------------------------------------------
1     3.5   8.0  1/31/02  -0.6  1/28/02 1767    0 132.0   1   9  1/30/02 ESE 30.13   91
2     5.7  10.6  2/20/02  -0.2  2/28/02 1596    0  74.8   3  21  2/19/02 NNE 30.15   81
3     5.6  15.1  3/25/02  -2.8  3/20/02 1778    0  62.4   4  29   3/9/02  SW 30.02   76
4     9.9  20.6  4/30/02   2.1   4/8/02 1593    0  43.1   3  27  4/14/02 SSW 30.01   73
5    12.3  21.8  5/12/02   2.7   5/7/02 1580    0  17.9   3  26   5/2/02 SSW 30.02   70
6    16.5  29.5  6/13/02   7.8   6/8/02  605   13   9.2   3  17   6/6/02 SSW 29.99   66
7    18.2  29.7  7/22/02   8.9   7/5/02   81   27   2.5   2  17  7/30/02   N 30.03   63
8    17.9  29.7  8/13/02  10.7   8/3/02   89   23   5.0   2  16  8/25/02  SW 30.03   66
9    15.2  24.1  9/13/02   8.2  9/20/02  144    4  17.1   1  20  9/29/02 WSW 29.98   73
10   10.5  20.2 10/16/02   1.6 10/31/02  278    0  16.2   1  19  10/9/02 NNE 30.12   80
11    8.7  15.4 11/20/02   1.4  11/3/02  322    0  72.2   2  24 11/16/02 NNE 30.02   89
12    6.7  12.7 12/14/02  -1.3 12/29/02  397    0  55.2   3  28 12/15/02 NNE 29.80   90
---------------------------------------------------------------------------------------
TOT  11.6  29.7  7/22/02  -2.8  3/20/02 8640   67 507.8   2  29   3/9/02 NNE 30.01   75

HEAT BASE: 20.0
COOL BASE: 20.0

horizontal rule

Please Note: "Heat Base" and "Cool Base" were changed June 11, 2002 from 65F to 20C.  Previous "Heat Degrees" and "Cool Degrees" figures will have to be adjusted downward by 45/day.

 

 

PLEASE NOTE: SI units (metric) are now used for all weather station recordings starting in 2008.
Please refer to
Summaries page for details.

Shop JoeTourist! - t-shirts, mugs, sweatshirts, baseball caps, and more - Shop JoeTourist!

This weather station is operated by JoeTourist InfoSystems
Location: Lat 48 26' 45" N,  Long 123 21' 30" W, Elev: 43m - 3046 Jackson St., Victoria, BC, Canada
Never base important decisions on this or any weather information obtained from the Internet
Hardware: Oregon Scientific WMR968 Wireless Weather Station
Website updated automatically by Ambient Software's
Virtual Weather Station Software

2014 JoeTourist InfoSystems.  See Copyright and Terms of Use notice & Privacy Statement
JoeTourist
is a registered trademark of Joseph A. Carr.